createdAt,value
2023-05-11T00:00:46.547Z,35.37
2023-05-11T00:03:14.550Z,30.43
2023-05-11T00:05:42.496Z,26.63
2023-05-11T00:08:10.305Z,24.90
2023-05-11T00:10:37.890Z,31.03
2023-05-11T00:13:07.089Z,28.50
2023-05-11T00:15:34.692Z,25.10
2023-05-11T00:18:02.379Z,30.50
2023-05-11T00:20:30.347Z,29.93
2023-05-11T00:22:58.077Z,27.40
2023-05-11T00:25:26.100Z,26.50
2023-05-11T00:27:53.709Z,26.83
2023-05-11T00:30:23.129Z,26.90
2023-05-11T00:32:52.595Z,26.40
2023-05-11T00:35:20.637Z,25.70
2023-05-11T00:37:48.338Z,24.67
2023-05-11T00:40:16.383Z,20.37
2023-05-11T00:42:44.287Z,21.57
2023-05-11T00:45:12.495Z,22.93
2023-05-11T00:47:41.922Z,27.13
2023-05-11T00:50:10.354Z,24.67
2023-05-11T00:52:38.027Z,23.73
2023-05-11T00:55:06.499Z,24.17
2023-05-11T00:57:36.083Z,25.77
2023-05-11T01:00:04.486Z,28.50
2023-05-11T01:02:32.705Z,27.47
2023-05-11T01:05:01.978Z,23.00
2023-05-11T01:07:34.130Z,29.60
2023-05-11T01:10:06.907Z,25.33
2023-05-11T01:12:41.758Z,25.97
2023-05-11T01:15:12.033Z,28.87
2023-05-11T01:17:47.505Z,26.30
2023-05-11T01:20:19.986Z,28.77
2023-05-11T01:23:04.107Z,33.23
2023-05-11T01:25:44.206Z,30.00
2023-05-11T01:28:27.392Z,30.67
2023-05-11T01:30:59.036Z,31.17
2023-05-11T01:33:31.407Z,29.20
2023-05-11T01:36:04.956Z,31.83
2023-05-11T01:38:34.826Z,27.60
2023-05-11T01:41:05.970Z,28.47
2023-05-11T01:43:36.439Z,24.63
2023-05-11T01:46:06.850Z,22.50
2023-05-11T01:48:40.137Z,22.00
2023-05-11T01:51:08.831Z,19.30
2023-05-11T01:53:38.699Z,18.60
2023-05-11T01:56:07.823Z,18.17
2023-05-11T01:58:37.339Z,16.23
2023-05-11T02:01:06.692Z,15.50
2023-05-11T02:03:36.590Z,16.93
2023-05-11T02:06:05.634Z,17.03
2023-05-11T02:08:34.515Z,22.47
2023-05-11T02:11:04.126Z,16.80
2023-05-11T02:13:34.613Z,15.17
2023-05-11T02:16:03.792Z,19.03
2023-05-11T02:18:33.499Z,19.43
2023-05-11T02:21:02.585Z,18.93
2023-05-11T02:23:32.390Z,16.83
2023-05-11T02:26:00.274Z,17.90
2023-05-11T02:28:28.023Z,16.33
2023-05-11T02:30:57.959Z,17.90
2023-05-11T02:33:29.638Z,18.30
2023-05-11T02:35:59.545Z,18.37
2023-05-11T02:38:32.319Z,18.17
2023-05-11T02:41:04.566Z,16.40
2023-05-11T02:43:34.104Z,19.37
2023-05-11T02:46:05.716Z,20.47
2023-05-11T02:48:39.030Z,18.97
2023-05-11T02:51:11.543Z,18.60
2023-05-11T02:53:45.977Z,17.93
2023-05-11T02:56:14.468Z,20.47
2023-05-11T02:58:42.989Z,23.23
2023-05-11T03:01:23.445Z,19.07
2023-05-11T03:03:51.708Z,17.50
2023-05-11T03:06:20.928Z,17.67
2023-05-11T03:08:48.812Z,18.80
2023-05-11T03:11:18.331Z,19.27
2023-05-11T03:13:48.300Z,19.43
2023-05-11T03:16:19.600Z,21.83
2023-05-11T03:18:50.275Z,19.13
2023-05-11T03:21:21.608Z,17.67
2023-05-11T03:23:49.902Z,17.20
2023-05-11T03:26:18.920Z,19.57
2023-05-11T03:28:48.179Z,22.67
2023-05-11T03:31:16.247Z,25.00
2023-05-11T03:33:44.149Z,25.67
2023-05-11T03:36:12.126Z,25.90
2023-05-11T03:38:41.238Z,27.67
2023-05-11T03:41:15.527Z,27.13
2023-05-11T03:43:44.395Z,22.03
2023-05-11T03:46:13.154Z,30.97
2023-05-11T03:48:41.797Z,28.80
2023-05-11T03:51:10.616Z,27.47
2023-05-11T03:53:39.103Z,29.23
2023-05-11T03:56:09.291Z,31.93
2023-05-11T03:58:40.217Z,33.90
2023-05-11T04:01:08.883Z,31.30
2023-05-11T04:03:37.527Z,32.17
2023-05-11T04:06:05.446Z,33.47
2023-05-11T04:08:33.144Z,36.00
2023-05-11T04:11:01.227Z,32.60
2023-05-11T04:13:30.587Z,37.30
2023-05-11T04:15:58.577Z,31.57
2023-05-11T04:18:26.423Z,36.70
2023-05-11T04:20:54.641Z,35.10
2023-05-11T04:23:22.363Z,34.07
2023-05-11T04:25:54.105Z,36.30
2023-05-11T04:28:22.178Z,25.43
2023-05-11T04:30:55.158Z,27.67
2023-05-11T04:33:23.272Z,23.87
2023-05-11T04:35:51.793Z,24.13
2023-05-11T04:38:19.776Z,23.63
2023-05-11T04:40:47.980Z,25.20
2023-05-11T04:43:16.523Z,23.70
2023-05-11T04:45:48.855Z,21.10
2023-05-11T04:48:21.069Z,21.20
2023-05-11T04:50:49.113Z,18.07
2023-05-11T04:53:19.509Z,23.97
2023-05-11T04:55:47.908Z,18.20
2023-05-11T04:58:15.683Z,23.80
2023-05-11T05:00:43.331Z,17.20
2023-05-11T05:03:10.952Z,20.27
2023-05-11T05:05:39.982Z,23.40
2023-05-11T05:08:07.888Z,19.50
2023-05-11T05:10:35.614Z,19.97
2023-05-11T05:13:03.616Z,22.13
2023-05-11T05:15:31.977Z,21.97
2023-05-11T05:18:00.082Z,25.87
2023-05-11T05:20:28.982Z,24.67
2023-05-11T05:22:58.942Z,28.57
2023-05-11T05:25:26.614Z,22.43
2023-05-11T05:27:54.269Z,25.87
2023-05-11T05:30:22.401Z,28.63
2023-05-11T05:32:50.768Z,25.20
2023-05-11T05:35:18.625Z,27.70
2023-05-11T05:37:46.425Z,26.60
2023-05-11T05:40:16.583Z,20.87
2023-05-11T05:42:48.499Z,15.30
2023-05-11T05:45:20.996Z,14.87
2023-05-11T05:47:49.424Z,14.83
2023-05-11T05:50:18.094Z,15.40
2023-05-11T05:52:46.961Z,18.17
2023-05-11T05:55:16.677Z,18.00
2023-05-11T05:57:46.108Z,12.70
2023-05-11T06:00:14.873Z,13.97
2023-05-11T06:02:42.714Z,16.10
2023-05-11T06:05:19.155Z,13.57
2023-05-11T06:07:57.993Z,16.13
2023-05-11T06:10:36.392Z,19.80
2023-05-11T06:13:04.260Z,22.63
2023-05-11T06:15:32.290Z,23.00
2023-05-11T06:18:08.109Z,16.43
2023-05-11T06:20:36.318Z,16.70
2023-05-11T06:23:06.213Z,18.93
2023-05-11T06:25:39.469Z,23.00
2023-05-11T06:28:07.956Z,17.97
2023-05-11T06:30:37.463Z,19.10
2023-05-11T06:33:07.717Z,23.67
2023-05-11T06:35:37.698Z,24.30
2023-05-11T06:38:09.016Z,21.47
2023-05-11T06:40:39.032Z,22.37
2023-05-11T06:43:06.973Z,29.40
2023-05-11T06:45:46.478Z,24.37
2023-05-11T06:48:15.600Z,28.47
2023-05-11T06:50:43.291Z,25.07
2023-05-11T06:53:13.626Z,21.30
2023-05-11T06:55:42.714Z,31.27
2023-05-11T06:58:10.349Z,30.77
2023-05-11T07:00:37.987Z,29.60
2023-05-11T07:03:06.027Z,23.67
2023-05-11T07:05:33.642Z,31.37
2023-05-11T07:08:01.313Z,28.77
2023-05-11T07:10:29.071Z,30.00
2023-05-11T07:12:57.992Z,26.60
2023-05-11T07:15:26.482Z,26.53
2023-05-11T07:17:54.762Z,27.97
2023-05-11T07:20:22.501Z,24.83
2023-05-11T07:22:50.056Z,23.77
2023-05-11T07:25:17.610Z,27.00
2023-05-11T07:27:45.458Z,23.73
2023-05-11T07:30:16.637Z,25.03
2023-05-11T07:32:45.629Z,28.00
2023-05-11T07:35:15.010Z,27.97
2023-05-11T07:37:43.120Z,22.03
2023-05-11T07:40:29.410Z,20.57
2023-05-11T07:42:57.158Z,27.23
2023-05-11T07:45:32.824Z,28.13
2023-05-11T07:48:01.121Z,24.20
2023-05-11T07:50:30.542Z,26.30
2023-05-11T07:53:00.666Z,26.97
2023-05-11T07:55:30.651Z,23.03
2023-05-11T07:57:58.323Z,24.77
2023-05-11T08:00:30.450Z,26.90
2023-05-11T08:02:58.561Z,30.57
2023-05-11T08:05:27.075Z,25.20
2023-05-11T08:07:54.914Z,25.47
2023-05-11T08:10:22.574Z,26.33
2023-05-11T08:12:50.207Z,23.87
2023-05-11T08:15:21.650Z,22.77
2023-05-11T08:17:52.883Z,25.20
2023-05-11T08:20:20.740Z,22.23
2023-05-11T08:22:48.907Z,26.60
2023-05-11T08:25:20.047Z,24.03
2023-05-11T08:27:47.917Z,21.60
2023-05-11T08:30:16.139Z,21.90
2023-05-11T08:32:54.562Z,21.73
2023-05-11T08:35:27.954Z,21.87
2023-05-11T08:37:55.901Z,23.50
2023-05-11T08:40:26.119Z,22.70
2023-05-11T08:42:56.408Z,22.43
2023-05-11T08:45:24.343Z,21.23
2023-05-11T08:47:52.212Z,19.77
2023-05-11T08:50:20.044Z,22.10
2023-05-11T08:52:49.052Z,24.87
2023-05-11T08:55:16.896Z,24.80
2023-05-11T08:57:46.364Z,21.87
2023-05-11T09:00:15.328Z,26.77
2023-05-11T09:02:43.249Z,24.57
2023-05-11T09:05:11.527Z,24.00
2023-05-11T09:07:40.370Z,23.13
2023-05-11T09:10:12.214Z,21.53
2023-05-11T09:12:41.605Z,27.10
2023-05-11T09:15:10.441Z,22.97
2023-05-11T09:17:38.103Z,26.57
2023-05-11T09:20:09.102Z,24.60
2023-05-11T09:22:46.274Z,27.67
2023-05-11T09:25:17.986Z,28.97
2023-05-11T09:27:46.622Z,22.00
2023-05-11T09:30:22.007Z,28.37
2023-05-11T09:32:52.744Z,27.67
2023-05-11T09:35:25.123Z,27.60
2023-05-11T09:38:04.817Z,29.53
2023-05-11T09:40:40.304Z,29.30
2023-05-11T09:43:17.671Z,31.63
2023-05-11T09:45:46.290Z,31.97
2023-05-11T09:48:30.802Z,27.53
2023-05-11T09:51:04.833Z,26.13
2023-05-11T09:53:43.034Z,28.73
2023-05-11T09:56:13.794Z,36.50
2023-05-11T09:58:52.060Z,23.47
2023-05-11T10:01:20.967Z,28.60
2023-05-11T10:03:51.820Z,24.07
2023-05-11T10:06:20.433Z,25.97
2023-05-11T10:08:48.861Z,28.80
2023-05-11T10:11:19.516Z,24.30
2023-05-11T10:13:47.380Z,21.97
2023-05-11T10:16:17.379Z,23.33
2023-05-11T10:18:45.682Z,23.33
2023-05-11T10:21:13.764Z,24.53
2023-05-11T10:23:41.683Z,19.90
2023-05-11T10:26:10.543Z,21.40
2023-05-11T10:28:39.794Z,20.70
2023-05-11T10:31:08.162Z,17.90
2023-05-11T10:33:36.570Z,17.20
2023-05-11T10:36:04.469Z,17.60
2023-05-11T10:38:32.340Z,18.70
2023-05-11T10:41:08.926Z,15.43
2023-05-11T10:43:53.253Z,17.00
2023-05-11T10:46:39.027Z,16.30
2023-05-11T10:49:19.604Z,14.73
2023-05-11T10:52:16.348Z,16.03
2023-05-11T10:54:53.694Z,17.33
2023-05-11T10:57:47.849Z,16.23
2023-05-11T11:00:48.250Z,16.80
2023-05-11T11:03:16.980Z,16.63
2023-05-11T11:05:45.373Z,15.77
2023-05-11T11:08:13.286Z,13.10
2023-05-11T11:10:43.868Z,13.40
2023-05-11T11:13:12.559Z,14.27
2023-05-11T11:16:16.224Z,15.40
2023-05-11T11:18:44.506Z,13.73
2023-05-11T11:21:15.675Z,13.37
2023-05-11T11:23:51.083Z,14.23
2023-05-11T11:26:49.312Z,14.30
2023-05-11T11:29:17.352Z,12.40
2023-05-11T11:31:46.584Z,12.80
2023-05-11T11:34:34.631Z,12.20
2023-05-11T11:37:08.686Z,11.10
2023-05-11T11:39:51.027Z,10.87
2023-05-11T11:42:20.293Z,13.67
2023-05-11T11:44:48.581Z,12.30
2023-05-11T11:47:18.593Z,13.13
2023-05-11T11:49:47.881Z,13.17
2023-05-11T11:52:36.069Z,13.93
2023-05-11T11:55:05.365Z,11.90
2023-05-11T11:57:51.115Z,10.90
2023-05-11T12:00:22.771Z,14.07
2023-05-11T12:02:52.005Z,15.30
2023-05-11T12:05:22.471Z,23.40
2023-05-11T12:07:52.168Z,14.20
2023-05-11T12:10:21.030Z,12.33
2023-05-11T12:12:49.674Z,12.63
2023-05-11T12:15:24.736Z,11.27
2023-05-11T12:17:54.120Z,12.60
2023-05-11T12:20:22.697Z,12.70
2023-05-11T12:22:51.534Z,11.23
2023-05-11T12:25:21.762Z,11.27
2023-05-11T12:27:51.564Z,10.80
2023-05-11T12:30:23.755Z,9.77
2023-05-11T12:35:25.314Z,12.87
2023-05-11T12:37:53.878Z,12.03
2023-05-11T12:40:21.832Z,9.40
2023-05-11T12:42:51.479Z,11.80
2023-05-11T12:45:20.064Z,13.83
2023-05-11T12:47:48.740Z,11.63
2023-05-11T12:50:25.341Z,13.83
2023-05-11T12:52:53.092Z,12.20
2023-05-11T12:55:31.131Z,13.47
2023-05-11T12:58:09.097Z,12.13
2023-05-11T13:00:36.774Z,10.77
2023-05-11T13:03:05.118Z,11.10
2023-05-11T13:05:34.515Z,12.07
2023-05-11T13:08:03.355Z,9.07
2023-05-11T13:10:31.234Z,9.23
2023-05-11T13:12:59.442Z,11.40
2023-05-11T13:15:28.478Z,12.53
2023-05-11T13:17:59.971Z,10.90
2023-05-11T13:20:30.066Z,9.50
2023-05-11T13:23:07.477Z,9.60
2023-05-11T13:25:39.304Z,8.73
2023-05-11T13:28:07.753Z,11.80
2023-05-11T13:30:35.735Z,11.50
2023-05-11T13:33:04.032Z,11.97
2023-05-11T13:35:32.172Z,10.40
2023-05-11T13:37:59.973Z,10.60
2023-05-11T13:40:29.935Z,8.97
2023-05-11T13:42:57.698Z,10.20
2023-05-11T13:45:25.493Z,9.30
2023-05-11T13:47:55.252Z,11.30
2023-05-11T13:50:23.514Z,10.13
2023-05-11T13:52:51.975Z,12.67
2023-05-11T13:55:22.322Z,10.20
2023-05-11T13:57:52.330Z,13.07
2023-05-11T14:00:20.561Z,9.70
2023-05-11T14:02:50.439Z,12.77
2023-05-11T14:05:18.548Z,12.90
2023-05-11T14:07:48.273Z,13.03
2023-05-11T14:10:16.830Z,10.30
2023-05-11T14:12:44.713Z,11.33
2023-05-11T14:15:13.878Z,11.87
2023-05-11T14:17:43.128Z,11.53
2023-05-11T14:20:14.650Z,13.00
2023-05-11T14:22:42.466Z,11.70
2023-05-11T14:25:10.583Z,15.20
2023-05-11T14:27:38.636Z,12.20
2023-05-11T14:30:07.932Z,14.40
2023-05-11T14:32:37.186Z,15.37
2023-05-11T14:35:05.864Z,17.00
2023-05-11T14:37:33.900Z,11.40
2023-05-11T14:40:01.874Z,13.50
2023-05-11T14:42:30.237Z,15.07
2023-05-11T14:44:58.269Z,13.00
2023-05-11T14:47:26.109Z,13.60
2023-05-11T14:49:55.911Z,14.90
2023-05-11T14:52:23.624Z,12.27
2023-05-11T14:54:51.940Z,11.90
2023-05-11T14:57:19.778Z,12.63
2023-05-11T14:59:58.325Z,14.00
2023-05-11T15:02:27.460Z,14.10
2023-05-11T15:04:57.018Z,13.90
2023-05-11T15:07:24.953Z,12.80
2023-05-11T15:09:53.120Z,13.83
2023-05-11T15:12:20.973Z,13.47
2023-05-11T15:14:48.938Z,15.03
2023-05-11T15:17:16.804Z,13.70
2023-05-11T15:19:44.720Z,12.77
2023-05-11T15:22:13.943Z,13.73
2023-05-11T15:24:41.932Z,13.40
2023-05-11T15:27:09.793Z,16.90
2023-05-11T15:29:37.696Z,14.33
2023-05-11T15:32:08.966Z,15.43
2023-05-11T15:34:58.591Z,12.77
2023-05-11T15:37:30.729Z,13.13
2023-05-11T15:39:58.439Z,14.07
2023-05-11T15:42:26.811Z,12.77
2023-05-11T15:44:54.476Z,13.10
2023-05-11T15:47:22.218Z,15.20
2023-05-11T15:49:50.142Z,12.77
2023-05-11T15:52:18.339Z,12.07
2023-05-11T15:54:47.329Z,13.50
2023-05-11T15:57:14.957Z,11.93
2023-05-11T15:59:42.711Z,12.47
2023-05-11T16:02:10.819Z,12.57
2023-05-11T16:04:38.511Z,11.67
2023-05-11T16:07:07.063Z,11.80
2023-05-11T16:09:35.073Z,15.07
2023-05-11T16:12:04.727Z,16.70
2023-05-11T16:14:32.422Z,17.97
2023-05-11T16:17:01.554Z,15.43
2023-05-11T16:19:30.128Z,15.20
2023-05-11T16:21:58.075Z,14.73
2023-05-11T16:24:25.837Z,19.93
2023-05-11T16:26:53.519Z,16.00
2023-05-11T16:29:22.567Z,16.23
2023-05-11T16:31:50.256Z,14.77
2023-05-11T16:34:18.038Z,15.83
2023-05-11T16:36:46.051Z,14.90
2023-05-11T16:39:13.707Z,17.43
2023-05-11T16:41:41.384Z,16.50
2023-05-11T16:44:09.389Z,16.90
2023-05-11T16:46:38.558Z,18.43
2023-05-11T16:49:06.525Z,17.33
2023-05-11T16:51:34.249Z,17.47
2023-05-11T16:54:02.163Z,16.93
2023-05-11T16:56:29.781Z,16.63
2023-05-11T16:58:57.924Z,16.73
2023-05-11T17:01:25.810Z,17.77
2023-05-11T17:03:54.896Z,18.67
2023-05-11T17:06:23.994Z,19.77
2023-05-11T17:08:52.903Z,20.27
2023-05-11T17:11:21.524Z,18.70
2023-05-11T17:13:49.258Z,19.50
2023-05-11T17:16:17.353Z,16.83
2023-05-11T17:18:45.154Z,17.13
2023-05-11T17:21:14.324Z,17.60
2023-05-11T17:23:42.105Z,17.13
2023-05-11T17:26:10.111Z,17.70
2023-05-11T17:28:37.761Z,16.97
2023-05-11T17:31:09.299Z,19.47
2023-05-11T17:33:37.218Z,17.57
2023-05-11T17:36:05.730Z,17.83
2023-05-11T17:38:35.270Z,20.90
2023-05-11T17:41:05.493Z,20.33
2023-05-11T17:43:36.767Z,20.57
2023-05-11T17:46:04.720Z,19.63
2023-05-11T17:48:32.872Z,19.30
2023-05-11T17:51:01.211Z,20.70
2023-05-11T17:53:29.147Z,20.67
2023-05-11T17:56:00.327Z,21.43
2023-05-11T17:58:28.042Z,20.47
2023-05-11T18:00:55.988Z,21.17
2023-05-11T18:03:23.796Z,21.50
2023-05-11T18:05:52.544Z,21.47
2023-05-11T18:08:20.251Z,20.07
2023-05-11T18:10:48.257Z,20.57
2023-05-11T18:13:17.803Z,20.60
2023-05-11T18:15:46.115Z,19.37
2023-05-11T18:18:14.513Z,19.47
2023-05-11T18:20:45.467Z,19.90
2023-05-11T18:23:14.158Z,21.17
2023-05-11T18:25:42.594Z,18.77
2023-05-11T18:28:10.515Z,18.53
2023-05-11T18:30:40.259Z,19.07
2023-05-11T18:33:08.289Z,18.37
2023-05-11T18:35:39.205Z,16.77
2023-05-11T18:38:07.479Z,19.07
2023-05-11T18:40:36.183Z,19.50
2023-05-11T18:43:04.254Z,18.37
2023-05-11T18:45:36.561Z,18.37
2023-05-11T18:48:06.509Z,17.47
2023-05-11T18:50:34.377Z,18.47
2023-05-11T18:53:02.395Z,17.10
2023-05-11T18:55:35.455Z,17.90
2023-05-11T18:58:09.287Z,17.77
2023-05-11T19:00:39.333Z,17.40
2023-05-11T19:03:09.212Z,18.30
2023-05-11T19:05:37.164Z,20.60
2023-05-11T19:08:05.449Z,17.97
2023-05-11T19:10:33.340Z,16.77
2023-05-11T19:13:01.311Z,18.13
2023-05-11T19:15:29.057Z,16.60
2023-05-11T19:17:56.941Z,16.13
2023-05-11T19:20:26.518Z,17.63
2023-05-11T19:22:54.403Z,19.30
2023-05-11T19:25:22.701Z,26.10
2023-05-11T19:27:50.461Z,15.40
2023-05-11T19:30:18.609Z,16.23
2023-05-11T19:32:49.476Z,16.10
2023-05-11T19:35:18.543Z,16.33
2023-05-11T19:37:48.705Z,15.90
2023-05-11T19:42:47.797Z,14.83
2023-05-11T19:45:16.025Z,18.50
2023-05-11T19:47:43.671Z,18.93
2023-05-11T19:50:11.675Z,15.10
2023-05-11T19:52:39.561Z,14.00
2023-05-11T19:55:09.242Z,15.57
2023-05-11T19:57:37.323Z,13.07
2023-05-11T20:00:06.288Z,15.20
2023-05-11T20:02:34.526Z,13.90
2023-05-11T20:05:02.433Z,16.73
2023-05-11T20:07:30.099Z,14.73
2023-05-11T20:09:57.792Z,9.63
2023-05-11T20:12:26.778Z,12.67
2023-05-11T20:14:54.512Z,10.43
2023-05-11T20:17:22.723Z,8.70
2023-05-11T20:19:51.146Z,7.03
2023-05-11T20:22:19.082Z,7.57
2023-05-11T20:24:47.357Z,7.33
2023-05-11T20:27:15.148Z,9.97
2023-05-11T20:29:44.248Z,10.23
2023-05-11T20:32:12.479Z,6.90
2023-05-11T20:34:40.218Z,10.93
2023-05-11T20:37:07.966Z,11.90
2023-05-11T20:39:36.360Z,5.93
2023-05-11T20:42:05.412Z,5.80
2023-05-11T20:44:33.681Z,8.70
2023-05-11T20:47:02.693Z,12.73
2023-05-11T20:49:38.141Z,7.20
2023-05-11T20:52:07.450Z,10.07
2023-05-11T20:54:35.894Z,7.17
2023-05-11T20:57:04.257Z,7.10
2023-05-11T21:02:04.477Z,6.47
2023-05-11T21:04:32.142Z,7.70
2023-05-11T21:06:59.987Z,7.83
2023-05-11T21:09:27.646Z,7.67
2023-05-11T21:11:55.326Z,6.50
2023-05-11T21:14:22.932Z,6.83
2023-05-11T21:16:50.687Z,9.20
2023-05-11T21:19:19.732Z,9.43
2023-05-11T21:21:49.491Z,8.47
2023-05-11T21:24:17.358Z,12.53
2023-05-11T21:26:47.908Z,9.83
2023-05-11T21:29:15.806Z,10.10
2023-05-11T21:31:43.506Z,8.37
2023-05-11T21:34:11.850Z,6.83
2023-05-11T21:36:41.440Z,7.67
2023-05-11T21:39:09.282Z,9.13
2023-05-11T21:41:36.985Z,14.27
2023-05-11T21:44:04.710Z,8.77
2023-05-11T21:46:32.584Z,7.70
2023-05-11T21:49:00.182Z,8.37
2023-05-11T21:51:27.864Z,12.83
2023-05-11T21:53:56.943Z,7.47
2023-05-11T21:56:25.044Z,7.73
2023-05-11T21:58:52.716Z,11.27
2023-05-11T22:01:20.501Z,13.73
2023-05-11T22:03:48.364Z,7.17
2023-05-11T22:06:16.083Z,8.30
2023-05-11T22:08:43.690Z,14.03
2023-05-11T22:11:12.739Z,7.30
2023-05-11T22:13:40.406Z,7.10
2023-05-11T22:16:08.677Z,10.97
2023-05-11T22:18:36.413Z,9.53
2023-05-11T22:21:04.456Z,7.53
2023-05-11T22:23:32.101Z,14.57
2023-05-11T22:25:59.788Z,9.00
2023-05-11T22:28:29.799Z,7.57
2023-05-11T22:30:59.189Z,10.00
2023-05-11T22:33:27.552Z,6.90
2023-05-11T22:35:55.865Z,7.17
2023-05-11T22:38:23.589Z,7.93
2023-05-11T22:40:51.406Z,11.67
2023-05-11T22:43:19.376Z,8.87
2023-05-11T22:45:48.722Z,10.10
2023-05-11T22:48:16.744Z,10.80
2023-05-11T22:50:47.516Z,12.10
2023-05-11T22:53:15.620Z,7.30
2023-05-11T22:55:43.556Z,9.37
2023-05-11T22:58:11.392Z,7.13
2023-05-11T23:00:38.970Z,8.63
2023-05-11T23:03:08.179Z,6.90
2023-05-11T23:05:37.164Z,7.80
2023-05-11T23:08:04.836Z,10.37
2023-05-11T23:10:32.439Z,8.63
2023-05-11T23:13:00.122Z,6.90
2023-05-11T23:15:27.787Z,7.67
2023-05-11T23:17:55.539Z,11.00
2023-05-11T23:20:24.731Z,8.10
2023-05-11T23:22:52.449Z,9.50
2023-05-11T23:25:20.392Z,6.87
2023-05-11T23:27:48.357Z,9.90
2023-05-11T23:30:16.148Z,11.73
2023-05-11T23:32:43.957Z,9.40
2023-05-11T23:35:11.925Z,9.63
2023-05-11T23:37:41.422Z,7.17
2023-05-11T23:40:10.052Z,10.87
2023-05-11T23:42:38.211Z,7.00
2023-05-11T23:45:08.028Z,9.97
2023-05-11T23:47:36.399Z,6.80
2023-05-11T23:50:04.099Z,9.23
2023-05-11T23:52:31.839Z,8.30
2023-05-11T23:55:00.881Z,6.73
2023-05-11T23:57:28.473Z,10.13
2023-05-11T23:59:56.368Z,7.40
